Time;durP1;ratioP1;P1;durP2;ratioP2;P2;SDS_P1;SDS_P2;PMS_P1;PMS_P2;Temp;Humidity;BMP_temperature;BMP_pressure;BME280_temperature;BME280_humidity;BME280_pressure;Samples;Min_cycle;Max_cycle;Signal;HPM_P1;HPM_P2
2023/05/09 00:00:47;;;;;;;75.07;47.05;;;;;;;;;;6157184;23;20462;-81
2023/05/09 00:03:13;;;;;;;79.70;47.40;;;;;;;;;;6157317;23;20013;-80
2023/05/09 00:05:40;;;;;;;75.30;45.30;;;;;;;;;;6157228;23;20093;-81
2023/05/09 00:08:06;;;;;;;78.63;46.53;;;;;;;;;;6157100;23;20009;-81
2023/05/09 00:10:32;;;;;;;75.57;44.78;;;;;;;;;;6156440;23;20443;-81
2023/05/09 00:12:59;;;;;;;76.30;44.95;;;;;;;;;;6132364;23;20420;-80
2023/05/09 00:15:25;;;;;;;70.78;45.33;;;;;;;;;;6156768;23;20025;-81
2023/05/09 00:17:51;;;;;;;78.85;43.13;;;;;;;;;;6183940;23;20009;-80
2023/05/09 00:20:18;;;;;;;73.93;44.38;;;;;;;;;;6183851;23;20013;-80
2023/05/09 00:22:45;;;;;;;70.97;43.72;;;;;;;;;;6157442;23;20009;-81
2023/05/09 00:25:11;;;;;;;82.88;45.95;;;;;;;;;;6156273;23;20020;-81
2023/05/09 00:27:37;;;;;;;78.50;43.65;;;;;;;;;;6157259;23;20017;-80
2023/05/09 00:30:04;;;;;;;79.03;46.42;;;;;;;;;;6157088;23;20021;-81
2023/05/09 00:32:31;;;;;;;75.10;45.10;;;;;;;;;;6156476;23;20013;-81
2023/05/09 00:34:57;;;;;;;69.88;42.88;;;;;;;;;;6156992;23;20475;-79
2023/05/09 00:37:23;;;;;;;80.47;45.40;;;;;;;;;;6132240;23;20036;-81
2023/05/09 00:39:49;;;;;;;72.70;45.05;;;;;;;;;;6131480;23;20452;-81
2023/05/09 00:42:16;;;;;;;86.13;43.67;;;;;;;;;;6157019;23;20052;-82
2023/05/09 00:44:42;;;;;;;82.18;45.60;;;;;;;;;;6131839;23;20045;-81
2023/05/09 00:47:08;;;;;;;98.53;48.03;;;;;;;;;;6156398;23;20152;-81
2023/05/09 00:49:34;;;;;;;73.20;43.08;;;;;;;;;;6156469;23;20013;-81
2023/05/09 00:52:01;;;;;;;72.32;42.15;;;;;;;;;;6157147;23;20036;-80
2023/05/09 00:54:27;;;;;;;65.05;40.72;;;;;;;;;;6155662;23;20095;-81
2023/05/09 00:56:53;;;;;;;74.28;44.42;;;;;;;;;;6156910;23;20048;-81
2023/05/09 00:59:20;;;;;;;69.75;43.38;;;;;;;;;;6156440;23;20020;-80
2023/05/09 01:01:46;;;;;;;66.10;42.90;;;;;;;;;;6156461;23;20040;-81
2023/05/09 01:04:13;;;;;;;72.93;44.83;;;;;;;;;;6156766;23;20134;-81
2023/05/09 01:06:42;;;;;;;79.45;45.40;;;;;;;;;;6183333;23;20020;-81
2023/05/09 01:09:21;;;;;;;86.30;46.58;;;;;;;;;;6131453;23;20013;-81
2023/05/09 01:11:47;;;;;;;79.40;45.65;;;;;;;;;;6156525;23;20055;-81
2023/05/09 01:14:13;;;;;;;71.90;43.75;;;;;;;;;;6131827;23;20072;-80
2023/05/09 01:17:01;;;;;;;90.45;49.78;;;;;;;;;;6156612;23;20013;-81
2023/05/09 01:19:27;;;;;;;82.40;46.50;;;;;;;;;;6156622;23;20020;-81
2023/05/09 01:21:55;;;;;;;77.60;46.53;;;;;;;;;;6131659;23;20850;-81
2023/05/09 01:24:49;;;;;;;93.30;49.03;;;;;;;;;;6156884;23;20099;-81
2023/05/09 01:27:21;;;;;;;80.25;47.83;;;;;;;;;;6183268;23;20013;-80
2023/05/09 01:29:48;;;;;;;80.57;48.92;;;;;;;;;;6131746;23;20009;-80
2023/05/09 01:32:19;;;;;;;102.43;49.47;;;;;;;;;;6131713;23;20399;-80
2023/05/09 01:34:47;;;;;;;93.40;49.88;;;;;;;;;;6131666;23;20020;-81
2023/05/09 01:37:15;;;;;;;93.60;49.33;;;;;;;;;;6131230;23;20017;-80
2023/05/09 01:39:44;;;;;;;99.70;49.65;;;;;;;;;;6132021;23;20013;-81
2023/05/09 01:42:11;;;;;;;80.50;46.67;;;;;;;;;;6156641;23;20088;-81
2023/05/09 01:44:38;;;;;;;78.95;48.10;;;;;;;;;;6182709;23;20013;-80
2023/05/09 01:47:06;;;;;;;105.70;50.97;;;;;;;;;;6156054;23;20013;-81
2023/05/09 01:49:33;;;;;;;102.63;51.40;;;;;;;;;;6156272;23;20388;-81
2023/05/09 01:52:00;;;;;;;77.72;45.80;;;;;;;;;;6182514;23;20017;-82
2023/05/09 01:54:27;;;;;;;95.85;49.70;;;;;;;;;;6156123;23;20017;-81
2023/05/09 01:56:54;;;;;;;85.68;49.67;;;;;;;;;;6131439;23;20017;-81
2023/05/09 01:59:20;;;;;;;90.28;50.75;;;;;;;;;;6156173;23;20017;-82
2023/05/09 02:01:47;;;;;;;96.63;51.17;;;;;;;;;;6131436;23;20060;-81
2023/05/09 02:04:15;;;;;;;110.00;51.38;;;;;;;;;;6156235;23;20069;-81
2023/05/09 02:06:43;;;;;;;98.68;50.40;;;;;;;;;;6156597;23;20094;-81
2023/05/09 02:09:10;;;;;;;117.18;55.75;;;;;;;;;;6157972;23;20471;-81
2023/05/09 02:11:36;;;;;;;107.28;52.90;;;;;;;;;;6184704;23;20013;-82
2023/05/09 02:14:02;;;;;;;110.60;53.13;;;;;;;;;;6157940;23;20017;-81
2023/05/09 02:16:28;;;;;;;95.43;51.90;;;;;;;;;;6133151;23;20076;-79
2023/05/09 02:18:55;;;;;;;98.78;53.30;;;;;;;;;;6158369;23;20017;-81
2023/05/09 02:21:21;;;;;;;93.47;52.20;;;;;;;;;;6184242;23;20056;-80
2023/05/09 02:23:47;;;;;;;91.40;53.50;;;;;;;;;;6157973;23;20016;-81
2023/05/09 02:26:13;;;;;;;99.28;53.28;;;;;;;;;;6157994;23;20021;-80
2023/05/09 02:28:40;;;;;;;86.22;49.88;;;;;;;;;;6157739;23;20429;-81
2023/05/09 02:31:07;;;;;;;110.80;55.10;;;;;;;;;;6133222;23;20013;-81
2023/05/09 02:33:34;;;;;;;92.50;53.65;;;;;;;;;;6157790;23;20117;-80
2023/05/09 02:36:00;;;;;;;106.25;54.58;;;;;;;;;;6184041;23;20056;-81
2023/05/09 02:38:26;;;;;;;105.05;54.55;;;;;;;;;;6133333;23;20020;-81
2023/05/09 02:40:52;;;;;;;93.07;53.53;;;;;;;;;;6133377;23;20016;-80
2023/05/09 02:43:18;;;;;;;102.38;54.53;;;;;;;;;;6133118;23;20013;-80
2023/05/09 02:45:44;;;;;;;125.30;59.53;;;;;;;;;;6184200;23;20462;-81
2023/05/09 02:48:10;;;;;;;114.55;56.90;;;;;;;;;;6157733;23;20014;-81
2023/05/09 02:50:38;;;;;;;141.18;60.35;;;;;;;;;;6156970;23;20091;-81
2023/05/09 02:53:04;;;;;;;109.07;53.03;;;;;;;;;;6157661;23;20020;-81
2023/05/09 02:55:30;;;;;;;108.45;56.85;;;;;;;;;;6157896;23;20027;-80
2023/05/09 02:57:56;;;;;;;99.38;55.90;;;;;;;;;;6184333;23;20020;-80
2023/05/09 03:00:24;;;;;;;109.20;57.50;;;;;;;;;;6157423;23;20048;-81
2023/05/09 03:02:50;;;;;;;101.57;56.88;;;;;;;;;;6184175;23;20045;-81
2023/05/09 03:05:17;;;;;;;101.72;55.70;;;;;;;;;;6183737;23;20009;-81
2023/05/09 03:07:43;;;;;;;95.68;53.13;;;;;;;;;;6158017;23;20092;-81
2023/05/09 03:10:12;;;;;;;92.90;51.47;;;;;;;;;;6184421;23;20036;-81
2023/05/09 03:12:38;;;;;;;93.72;52.30;;;;;;;;;;6184214;23;20060;-81
2023/05/09 03:15:08;;;;;;;105.18;57.17;;;;;;;;;;6132656;23;20013;-81
2023/05/09 03:17:34;;;;;;;123.47;60.33;;;;;;;;;;6183512;23;20335;-81
2023/05/09 03:20:00;;;;;;;121.85;61.05;;;;;;;;;;6157464;23;20317;-80
2023/05/09 03:22:26;;;;;;;123.57;59.88;;;;;;;;;;6132701;23;20013;-81
2023/05/09 03:24:52;;;;;;;128.70;61.08;;;;;;;;;;6132778;23;20027;-81
2023/05/09 03:27:19;;;;;;;130.40;63.10;;;;;;;;;;6132671;23;20036;-80
2023/05/09 03:29:45;;;;;;;139.77;62.38;;;;;;;;;;6157645;23;20013;-81
2023/05/09 03:32:11;;;;;;;124.10;61.88;;;;;;;;;;6157293;23;20020;-81
2023/05/09 03:34:37;;;;;;;139.02;62.72;;;;;;;;;;6157761;23;20079;-81
2023/05/09 03:37:03;;;;;;;156.40;67.18;;;;;;;;;;6157431;23;20424;-80
2023/05/09 03:39:29;;;;;;;133.80;62.40;;;;;;;;;;6157367;23;20475;-81
2023/05/09 03:41:55;;;;;;;111.30;58.08;;;;;;;;;;6157566;23;20021;-81
2023/05/09 03:44:21;;;;;;;108.20;58.33;;;;;;;;;;6157096;23;20083;-81
2023/05/09 03:46:47;;;;;;;120.65;61.33;;;;;;;;;;6156604;23;20013;-81
2023/05/09 03:49:13;;;;;;;108.25;58.42;;;;;;;;;;6132718;23;20032;-81
2023/05/09 03:51:39;;;;;;;127.15;61.30;;;;;;;;;;6132884;23;20009;-81
2023/05/09 03:54:05;;;;;;;108.53;58.20;;;;;;;;;;6132550;23;20292;-81
2023/05/09 03:56:31;;;;;;;119.45;60.42;;;;;;;;;;6132664;23;20063;-82
2023/05/09 03:58:57;;;;;;;123.22;61.08;;;;;;;;;;6132705;23;20055;-81
2023/05/09 04:01:23;;;;;;;90.55;53.47;;;;;;;;;;6157055;23;20021;-81
2023/05/09 04:03:50;;;;;;;109.68;56.50;;;;;;;;;;6132379;23;20016;-81
2023/05/09 04:06:16;;;;;;;97.88;55.97;;;;;;;;;;6156725;23;20013;-81
2023/05/09 04:08:43;;;;;;;103.97;55.08;;;;;;;;;;6157330;23;20089;-81
2023/05/09 04:11:09;;;;;;;97.20;54.90;;;;;;;;;;6183946;23;20012;-82
2023/05/09 04:13:35;;;;;;;80.78;51.97;;;;;;;;;;6183385;23;20019;-82
2023/05/09 04:16:01;;;;;;;70.63;47.95;;;;;;;;;;6156319;23;20087;-82
2023/05/09 04:18:27;;;;;;;89.35;52.83;;;;;;;;;;6157067;23;20033;-80
2023/05/09 04:20:53;;;;;;;65.10;44.33;;;;;;;;;;6132274;23;20017;-81
2023/05/09 04:23:19;;;;;;;50.17;37.47;;;;;;;;;;6157254;23;20472;-81
2023/05/09 04:25:45;;;;;;;63.92;44.28;;;;;;;;;;6156896;23;20341;-81
2023/05/09 04:28:11;;;;;;;54.92;39.50;;;;;;;;;;6132297;23;20406;-82
2023/05/09 04:30:37;;;;;;;57.30;41.65;;;;;;;;;;6131767;23;20071;-82
2023/05/09 04:33:03;;;;;;;55.88;41.58;;;;;;;;;;6132351;23;20452;-81
2023/05/09 04:35:29;;;;;;;48.00;38.65;;;;;;;;;;6132494;23;20087;-81
2023/05/09 04:37:55;;;;;;;54.25;39.15;;;;;;;;;;6157101;23;20013;-81
2023/05/09 04:40:21;;;;;;;44.67;36.08;;;;;;;;;;6132159;23;20411;-81
2023/05/09 04:42:47;;;;;;;50.53;39.75;;;;;;;;;;6157414;23;20020;-81
2023/05/09 04:45:14;;;;;;;49.72;38.08;;;;;;;;;;6156438;23;20071;-81
2023/05/09 04:47:40;;;;;;;49.03;37.75;;;;;;;;;;6132375;23;20344;-81
2023/05/09 04:50:07;;;;;;;45.40;36.58;;;;;;;;;;6156830;23;20015;-81
2023/05/09 04:52:33;;;;;;;50.85;38.67;;;;;;;;;;6156994;23;20087;-81
2023/05/09 04:54:59;;;;;;;49.30;38.80;;;;;;;;;;6183363;23;20161;-81
2023/05/09 04:57:25;;;;;;;56.80;41.80;;;;;;;;;;6183406;23;20083;-81
2023/05/09 04:59:52;;;;;;;47.70;37.75;;;;;;;;;;6156046;23;20013;-80
2023/05/09 05:02:18;;;;;;;46.08;36.63;;;;;;;;;;6183324;23;20021;-81
2023/05/09 05:04:44;;;;;;;48.67;38.83;;;;;;;;;;6156248;23;20108;-81
2023/05/09 05:07:10;;;;;;;45.20;37.58;;;;;;;;;;6183282;23;20024;-81
2023/05/09 05:09:36;;;;;;;52.17;40.75;;;;;;;;;;6131692;23;20470;-81
2023/05/09 05:12:05;;;;;;;54.90;41.28;;;;;;;;;;6182855;23;20080;-81
2023/05/09 05:14:31;;;;;;;55.40;41.55;;;;;;;;;;6155421;23;20087;-81
2023/05/09 05:16:57;;;;;;;52.92;41.20;;;;;;;;;;6131397;23;20017;-81
2023/05/09 05:19:24;;;;;;;50.20;38.70;;;;;;;;;;6182821;23;20071;-81
2023/05/09 05:21:50;;;;;;;57.80;44.35;;;;;;;;;;6182899;23;20024;-81
2023/05/09 05:24:16;;;;;;;57.75;43.67;;;;;;;;;;6131611;23;20103;-81
2023/05/09 05:26:41;;;;;;;58.65;43.03;;;;;;;;;;6131374;23;20324;-81
2023/05/09 05:29:08;;;;;;;48.78;39.85;;;;;;;;;;6130787;23;20015;-81
2023/05/09 05:31:34;;;;;;;49.70;40.50;;;;;;;;;;6131356;23;20083;-81
2023/05/09 05:34:00;;;;;;;56.30;40.33;;;;;;;;;;6156342;23;20471;-81
2023/05/09 05:36:26;;;;;;;48.15;38.58;;;;;;;;;;6131382;23;20071;-81
2023/05/09 05:38:52;;;;;;;35.03;30.88;;;;;;;;;;6155999;23;20084;-81
2023/05/09 05:41:18;;;;;;;36.22;31.65;;;;;;;;;;6155751;23;20020;-81
2023/05/09 05:43:44;;;;;;;34.55;30.20;;;;;;;;;;6155247;23;20082;-81
2023/05/09 05:46:10;;;;;;;38.22;32.58;;;;;;;;;;6182741;23;20123;-81
2023/05/09 05:48:35;;;;;;;33.50;29.73;;;;;;;;;;6155897;23;20017;-81
2023/05/09 05:51:01;;;;;;;31.23;27.90;;;;;;;;;;6182703;23;20009;-82
2023/05/09 05:53:27;;;;;;;33.20;28.27;;;;;;;;;;6131388;23;20512;-81
2023/05/09 05:55:53;;;;;;;32.88;29.30;;;;;;;;;;6131322;23;20013;-82
2023/05/09 05:58:19;;;;;;;34.50;27.35;;;;;;;;;;6155602;23;20375;-81
2023/05/09 06:00:45;;;;;;;32.03;28.50;;;;;;;;;;6155599;23;20091;-82
2023/05/09 06:03:13;;;;;;;37.92;30.33;;;;;;;;;;6155680;23;20024;-81
2023/05/09 06:05:46;;;;;;;30.63;27.45;;;;;;;;;;6155952;23;20040;-81
2023/05/09 06:08:12;;;;;;;31.50;28.13;;;;;;;;;;6131033;23;20009;-81
2023/05/09 06:10:38;;;;;;;35.75;29.02;;;;;;;;;;6182051;23;20420;-81
2023/05/09 06:13:04;;;;;;;30.52;27.23;;;;;;;;;;6155160;23;20013;-81
2023/05/09 06:15:30;;;;;;;30.10;26.90;;;;;;;;;;6155505;23;20013;-81
2023/05/09 06:17:56;;;;;;;32.45;28.77;;;;;;;;;;6131132;23;20087;-81
2023/05/09 06:20:22;;;;;;;33.50;28.67;;;;;;;;;;6155569;23;20041;-81
2023/05/09 06:22:48;;;;;;;33.80;28.88;;;;;;;;;;6130983;23;20067;-81
2023/05/09 06:25:14;;;;;;;30.50;27.23;;;;;;;;;;6130852;23;20013;-81
2023/05/09 06:27:40;;;;;;;35.00;29.55;;;;;;;;;;6130517;23;20009;-81
2023/05/09 06:30:06;;;;;;;35.53;28.98;;;;;;;;;;6155627;23;20348;-81
2023/05/09 06:32:32;;;;;;;34.83;28.95;;;;;;;;;;6182223;23;20013;-81
2023/05/09 06:34:58;;;;;;;40.70;31.90;;;;;;;;;;6155477;23;20317;-81
2023/05/09 06:37:25;;;;;;;34.50;28.45;;;;;;;;;;6130778;23;20017;-81
2023/05/09 06:39:51;;;;;;;38.53;31.42;;;;;;;;;;6155563;23;20017;-81
2023/05/09 06:42:17;;;;;;;32.67;27.55;;;;;;;;;;6130202;23;20040;-81
2023/05/09 06:44:43;;;;;;;39.20;31.15;;;;;;;;;;6181691;23;20286;-81
2023/05/09 06:47:09;;;;;;;43.85;32.15;;;;;;;;;;6131002;23;20087;-81
2023/05/09 06:49:35;;;;;;;44.78;33.22;;;;;;;;;;6155419;23;20043;-81
2023/05/09 06:52:01;;;;;;;44.05;33.25;;;;;;;;;;6131492;23;20084;-81
2023/05/09 06:54:27;;;;;;;46.00;34.40;;;;;;;;;;6132741;23;20013;-81
2023/05/09 06:56:53;;;;;;;49.88;35.92;;;;;;;;;;6156576;23;20013;-81
2023/05/09 06:59:19;;;;;;;42.10;31.65;;;;;;;;;;6157325;23;20013;-81
2023/05/09 07:01:45;;;;;;;47.67;35.20;;;;;;;;;;6132655;23;20072;-81
2023/05/09 07:04:11;;;;;;;43.70;35.05;;;;;;;;;;6157609;23;20021;-81
2023/05/09 07:06:37;;;;;;;40.20;29.90;;;;;;;;;;6183770;23;20467;-81
2023/05/09 07:09:03;;;;;;;51.05;35.05;;;;;;;;;;6157397;23;20025;-81
2023/05/09 07:11:34;;;;;;;54.70;38.20;;;;;;;;;;6156576;23;20088;-81
2023/05/09 07:14:00;;;;;;;53.75;36.83;;;;;;;;;;6132344;23;20017;-81
2023/05/09 07:16:28;;;;;;;50.40;37.60;;;;;;;;;;6157522;23;20020;-81
2023/05/09 07:18:54;;;;;;;53.88;38.17;;;;;;;;;;6157087;23;20016;-81
2023/05/09 07:21:20;;;;;;;55.92;39.92;;;;;;;;;;6156839;23;20013;-81
2023/05/09 07:23:46;;;;;;;53.80;37.92;;;;;;;;;;6183843;23;20009;-81
2023/05/09 07:26:12;;;;;;;55.58;39.90;;;;;;;;;;6131888;23;20344;-81
2023/05/09 07:28:38;;;;;;;59.13;40.80;;;;;;;;;;6156979;23;20013;-81
2023/05/09 07:31:05;;;;;;;65.47;45.80;;;;;;;;;;6156966;23;20445;-81
2023/05/09 07:33:31;;;;;;;56.13;38.25;;;;;;;;;;6132495;23;20087;-81
2023/05/09 07:36:00;;;;;;;66.50;43.78;;;;;;;;;;6183597;23;20088;-81
2023/05/09 07:38:26;;;;;;;57.08;41.30;;;;;;;;;;6157653;23;20020;-81
2023/05/09 07:40:52;;;;;;;68.13;42.05;;;;;;;;;;6131869;23;20025;-81
2023/05/09 07:43:18;;;;;;;65.63;43.60;;;;;;;;;;6157005;23;20013;-82
2023/05/09 07:45:45;;;;;;;65.03;43.10;;;;;;;;;;6132219;23;20013;-82
2023/05/09 07:48:11;;;;;;;62.03;40.03;;;;;;;;;;6157463;23;20053;-81
2023/05/09 07:50:38;;;;;;;60.72;39.88;;;;;;;;;;6183110;23;20452;-81
2023/05/09 07:53:04;;;;;;;62.42;43.13;;;;;;;;;;6156771;23;20013;-81
2023/05/09 07:55:30;;;;;;;68.05;43.70;;;;;;;;;;6183152;23;20017;-81
2023/05/09 07:57:56;;;;;;;60.15;41.75;;;;;;;;;;6183473;23;20067;-81
2023/05/09 08:00:22;;;;;;;63.72;42.30;;;;;;;;;;6156805;23;20016;-81
2023/05/09 08:02:51;;;;;;;58.83;38.70;;;;;;;;;;6157101;23;20079;-81
2023/05/09 08:05:18;;;;;;;59.92;42.25;;;;;;;;;;6156610;23;20018;-81
2023/05/09 08:07:44;;;;;;;62.45;43.92;;;;;;;;;;6156062;23;20013;-81
2023/05/09 08:10:10;;;;;;;62.88;42.35;;;;;;;;;;6132111;23;20341;-81
2023/05/09 08:12:36;;;;;;;60.25;41.42;;;;;;;;;;6132113;23;20017;-81
2023/05/09 08:15:02;;;;;;;58.05;41.58;;;;;;;;;;6182923;23;20024;-81
2023/05/09 08:17:28;;;;;;;63.90;41.95;;;;;;;;;;6132077;23;20092;-81
2023/05/09 08:19:54;;;;;;;64.07;42.72;;;;;;;;;;6182880;23;20374;-81
2023/05/09 08:22:20;;;;;;;58.22;39.63;;;;;;;;;;6156278;23;20455;-81
2023/05/09 08:24:47;;;;;;;54.08;38.78;;;;;;;;;;6156600;23;20024;-81
2023/05/09 08:27:14;;;;;;;57.55;40.40;;;;;;;;;;6131736;23;20017;-81
2023/05/09 08:29:40;;;;;;;54.55;38.00;;;;;;;;;;6156556;23;20294;-81
2023/05/09 08:32:06;;;;;;;58.05;39.38;;;;;;;;;;6183108;23;20349;-81
2023/05/09 08:34:33;;;;;;;51.15;36.10;;;;;;;;;;6131667;23;20144;-81
2023/05/09 08:37:03;;;;;;;54.92;37.40;;;;;;;;;;6131101;23;20083;-81
2023/05/09 08:39:29;;;;;;;55.15;39.25;;;;;;;;;;6156691;23;20020;-81
2023/05/09 08:41:58;;;;;;;55.78;37.03;;;;;;;;;;6131772;23;20413;-81
2023/05/09 08:44:24;;;;;;;57.67;37.90;;;;;;;;;;6156585;23;20305;-81
2023/05/09 08:46:52;;;;;;;54.75;37.92;;;;;;;;;;6156709;23;20016;-81
2023/05/09 08:49:19;;;;;;;57.25;38.47;;;;;;;;;;6156175;23;20009;-81
2023/05/09 08:51:47;;;;;;;55.65;37.88;;;;;;;;;;6130950;23;20110;-81
2023/05/09 08:54:13;;;;;;;54.03;38.25;;;;;;;;;;6131747;23;20025;-81
2023/05/09 08:56:39;;;;;;;53.70;38.50;;;;;;;;;;6131644;23;20017;-81
2023/05/09 08:59:05;;;;;;;49.88;36.20;;;;;;;;;;6131524;23;20348;-81
2023/05/09 09:01:34;;;;;;;51.25;35.25;;;;;;;;;;6131515;23;20020;-81
2023/05/09 09:04:00;;;;;;;44.33;33.15;;;;;;;;;;6156149;23;20137;-81
2023/05/09 09:06:28;;;;;;;48.80;32.80;;;;;;;;;;6182245;23;20009;-82
2023/05/09 09:08:56;;;;;;;50.72;35.30;;;;;;;;;;6156344;23;20024;-82
2023/05/09 09:11:22;;;;;;;49.15;34.55;;;;;;;;;;6182852;23;20013;-81
2023/05/09 09:13:49;;;;;;;40.70;31.17;;;;;;;;;;6131642;23;20301;-81
2023/05/09 09:16:19;;;;;;;51.28;33.67;;;;;;;;;;6156111;23;20021;-81
2023/05/09 09:18:45;;;;;;;42.53;30.83;;;;;;;;;;6182812;23;20013;-81
2023/05/09 09:21:12;;;;;;;42.30;30.92;;;;;;;;;;6155835;23;20020;-81
2023/05/09 09:23:40;;;;;;;44.50;31.13;;;;;;;;;;6131393;23;20009;-81
2023/05/09 09:26:06;;;;;;;41.85;30.15;;;;;;;;;;6182371;23;20389;-82
2023/05/09 09:28:32;;;;;;;41.97;31.77;;;;;;;;;;6131306;23;20048;-82
2023/05/09 09:30:58;;;;;;;44.22;30.02;;;;;;;;;;6131290;23;20017;-81
2023/05/09 09:33:25;;;;;;;38.03;30.08;;;;;;;;;;6156219;23;20078;-81
2023/05/09 09:35:55;;;;;;;37.47;28.98;;;;;;;;;;6155154;23;20020;-82
2023/05/09 09:38:22;;;;;;;37.83;28.45;;;;;;;;;;6156028;23;20017;-81
2023/05/09 09:40:54;;;;;;;35.50;28.70;;;;;;;;;;6182335;23;20009;-81
2023/05/09 09:43:26;;;;;;;40.13;28.65;;;;;;;;;;6182655;23;20017;-82
2023/05/09 09:45:53;;;;;;;38.67;28.40;;;;;;;;;;6155867;23;20112;-82
2023/05/09 09:48:23;;;;;;;40.05;28.30;;;;;;;;;;6131166;23;20013;-82
2023/05/09 09:50:49;;;;;;;35.78;26.20;;;;;;;;;;6181698;23;20112;-82
2023/05/09 09:53:15;;;;;;;35.85;26.92;;;;;;;;;;6131277;23;20009;-82
2023/05/09 09:55:49;;;;;;;35.78;26.50;;;;;;;;;;6156062;23;20020;-82
2023/05/09 09:58:20;;;;;;;32.97;25.52;;;;;;;;;;6131124;23;20089;-82
2023/05/09 10:00:49;;;;;;;32.47;24.88;;;;;;;;;;6155676;23;20024;-82
2023/05/09 10:03:16;;;;;;;33.83;25.80;;;;;;;;;;6155658;23;20016;-82
2023/05/09 10:05:42;;;;;;;34.33;26.02;;;;;;;;;;6181831;23;20013;-82
2023/05/09 10:08:08;;;;;;;31.38;25.52;;;;;;;;;;6155754;23;20009;-82
2023/05/09 10:10:35;;;;;;;33.88;26.45;;;;;;;;;;6156127;23;20013;-82
2023/05/09 10:13:08;;;;;;;33.28;25.90;;;;;;;;;;6182425;23;20013;-82
2023/05/09 10:15:35;;;;;;;33.42;24.23;;;;;;;;;;6181928;23;20100;-82
2023/05/09 10:18:03;;;;;;;30.63;23.95;;;;;;;;;;6155818;23;20013;-82
2023/05/09 10:20:30;;;;;;;34.88;25.98;;;;;;;;;;6155340;23;20312;-82
2023/05/09 10:22:57;;;;;;;29.58;23.75;;;;;;;;;;6156167;23;20048;-82
2023/05/09 10:25:52;;;;;;;30.58;23.63;;;;;;;;;;6130721;23;20021;-82
2023/05/09 10:28:21;;;;;;;30.42;24.02;;;;;;;;;;6138269;23;20341;-81
2023/05/09 10:30:54;;;;;;;27.88;23.52;;;;;;;;;;6132859;23;20084;-82
2023/05/09 10:33:23;;;;;;;29.77;21.80;;;;;;;;;;6132391;23;20013;-81
2023/05/09 10:35:49;;;;;;;28.27;21.95;;;;;;;;;;6157287;23;20024;-81
2023/05/09 10:38:15;;;;;;;27.40;22.08;;;;;;;;;;6157541;23;20498;-81
2023/05/09 10:40:42;;;;;;;29.35;22.15;;;;;;;;;;6157777;23;20013;-81
2023/05/09 10:43:08;;;;;;;25.17;20.33;;;;;;;;;;6132700;23;20470;-81
2023/05/09 10:45:34;;;;;;;29.23;20.95;;;;;;;;;;6157233;23;20088;-81
2023/05/09 10:48:02;;;;;;;24.60;20.08;;;;;;;;;;6132249;23;20064;-81
2023/05/09 10:50:30;;;;;;;26.85;20.80;;;;;;;;;;6132755;23;20433;-81
2023/05/09 10:53:12;;;;;;;23.77;19.30;;;;;;;;;;6157374;23;20051;-81
2023/05/09 10:55:41;;;;;;;23.45;19.73;;;;;;;;;;6132731;23;20055;-81
2023/05/09 10:58:18;;;;;;;26.48;20.75;;;;;;;;;;6132705;23;20092;-81
2023/05/09 11:00:45;;;;;;;27.17;21.15;;;;;;;;;;6132744;23;20024;-81
2023/05/09 11:03:11;;;;;;;25.35;21.05;;;;;;;;;;6157034;23;20012;-81
2023/05/09 11:05:41;;;;;;;27.55;20.15;;;;;;;;;;6132498;23;20023;-82
2023/05/09 11:08:22;;;;;;;23.25;18.77;;;;;;;;;;6157442;23;20032;-82
2023/05/09 11:10:49;;;;;;;21.67;18.67;;;;;;;;;;6132516;23;20055;-82
2023/05/09 11:13:19;;;;;;;24.98;18.10;;;;;;;;;;6132552;23;20015;-82
2023/05/09 11:16:00;;;;;;;24.00;19.33;;;;;;;;;;6183476;23;20017;-82
2023/05/09 11:18:27;;;;;;;24.08;19.70;;;;;;;;;;6156524;23;20009;-82
2023/05/09 11:20:53;;;;;;;23.63;18.20;;;;;;;;;;6157626;23;20446;-81
2023/05/09 11:23:20;;;;;;;24.58;18.58;;;;;;;;;;6132980;23;20013;-81
2023/05/09 11:25:47;;;;;;;21.70;17.90;;;;;;;;;;6183890;23;20442;-82
2023/05/09 11:28:26;;;;;;;26.73;19.27;;;;;;;;;;6157289;23;20431;-82
2023/05/09 11:30:53;;;;;;;23.30;17.30;;;;;;;;;;6132185;23;20112;-82
2023/05/09 11:33:23;;;;;;;23.55;19.90;;;;;;;;;;6132629;23;20317;-81
2023/05/09 11:36:09;;;;;;;28.80;21.50;;;;;;;;;;6132479;23;20013;-81
2023/05/09 11:38:41;;;;;;;25.27;19.30;;;;;;;;;;6131787;23;20013;-81
2023/05/09 11:41:08;;;;;;;26.38;21.38;;;;;;;;;;6132619;23;20044;-82
2023/05/09 11:43:36;;;;;;;23.90;20.23;;;;;;;;;;6156908;23;20021;-82
2023/05/09 11:46:02;;;;;;;25.45;21.00;;;;;;;;;;6131704;23;20035;-82
2023/05/09 11:48:28;;;;;;;24.33;20.42;;;;;;;;;;6156842;23;20317;-82
2023/05/09 11:50:54;;;;;;;27.40;20.77;;;;;;;;;;6183297;23;20016;-82
2023/05/09 11:53:20;;;;;;;24.88;20.13;;;;;;;;;;6183153;23;20143;-81
2023/05/09 11:55:47;;;;;;;25.52;19.98;;;;;;;;;;6156679;23;20035;-82
2023/05/09 11:58:13;;;;;;;25.27;19.17;;;;;;;;;;6156693;23;20360;-82
2023/05/09 12:00:45;;;;;;;25.15;19.27;;;;;;;;;;6131527;23;20024;-81
2023/05/09 12:03:11;;;;;;;23.35;19.75;;;;;;;;;;6156503;23;20071;-81
2023/05/09 12:05:41;;;;;;;23.70;18.95;;;;;;;;;;6131970;23;20087;-82
2023/05/09 12:08:08;;;;;;;21.13;17.98;;;;;;;;;;6157109;23;20017;-82
2023/05/09 12:10:39;;;;;;;24.63;19.00;;;;;;;;;;6156662;23;20032;-82
2023/05/09 12:13:05;;;;;;;23.20;19.17;;;;;;;;;;6183359;23;20100;-82
2023/05/09 12:15:40;;;;;;;22.70;18.75;;;;;;;;;;6131082;23;20016;-82
2023/05/09 12:18:07;;;;;;;22.13;18.27;;;;;;;;;;6131820;23;20017;-82
2023/05/09 12:21:03;;;;;;;25.17;19.05;;;;;;;;;;6131882;23;20060;-81
2023/05/09 12:23:34;;;;;;;22.70;18.65;;;;;;;;;;6113879;23;20087;-81
2023/05/09 12:26:00;;;;;;;21.13;18.05;;;;;;;;;;6183263;23;20017;-81
2023/05/09 12:28:26;;;;;;;20.35;17.38;;;;;;;;;;6156401;23;20336;-81
2023/05/09 12:30:53;;;;;;;23.98;19.83;;;;;;;;;;6131175;23;20013;-82
2023/05/09 12:33:20;;;;;;;30.52;23.02;;;;;;;;;;6156334;23;20048;-81
2023/05/09 12:35:46;;;;;;;29.83;24.75;;;;;;;;;;6156198;23;20079;-81
2023/05/09 12:38:21;;;;;;;31.05;23.27;;;;;;;;;;6131871;23;20079;-82
2023/05/09 12:40:47;;;;;;;30.90;24.85;;;;;;;;;;6183108;23;20075;-81
2023/05/09 12:43:13;;;;;;;32.25;25.13;;;;;;;;;;6155604;23;20024;-81
2023/05/09 12:45:41;;;;;;;27.33;22.42;;;;;;;;;;6131561;23;20013;-81
2023/05/09 12:48:10;;;;;;;28.73;22.02;;;;;;;;;;6156685;23;20009;-81
2023/05/09 12:50:36;;;;;;;33.35;25.40;;;;;;;;;;6156638;23;20048;-81
2023/05/09 12:53:05;;;;;;;30.85;24.65;;;;;;;;;;6156333;23;20016;-82
2023/05/09 12:55:38;;;;;;;29.83;24.05;;;;;;;;;;6156414;23;20020;-81
2023/05/09 12:58:04;;;;;;;29.27;23.98;;;;;;;;;;6155609;23;20019;-81
2023/05/09 13:00:41;;;;;;;28.42;23.73;;;;;;;;;;6131609;23;20024;-81
2023/05/09 13:03:19;;;;;;;30.50;24.25;;;;;;;;;;6156485;23;20024;-81
2023/05/09 13:05:53;;;;;;;30.33;20.73;;;;;;;;;;6182815;23;20044;-81
2023/05/09 13:08:20;;;;;;;23.73;19.60;;;;;;;;;;6131473;23;20013;-81
2023/05/09 13:10:46;;;;;;;23.70;17.00;;;;;;;;;;6131519;23;20016;-81
2023/05/09 13:13:16;;;;;;;21.38;18.40;;;;;;;;;;6182165;23;20020;-82
2023/05/09 13:15:43;;;;;;;22.08;17.92;;;;;;;;;;6182332;23;20020;-81
2023/05/09 13:18:10;;;;;;;20.35;17.00;;;;;;;;;;6155851;23;20063;-82
2023/05/09 13:20:36;;;;;;;22.40;18.52;;;;;;;;;;6155882;23;20481;-82
2023/05/09 13:23:02;;;;;;;21.80;17.98;;;;;;;;;;6182582;23;20019;-81
2023/05/09 13:25:28;;;;;;;20.35;17.83;;;;;;;;;;6131595;23;20390;-82
2023/05/09 13:27:54;;;;;;;21.63;16.75;;;;;;;;;;6130650;23;20013;-82
2023/05/09 13:30:20;;;;;;;19.13;16.23;;;;;;;;;;6155929;23;20016;-82
2023/05/09 13:32:46;;;;;;;19.02;15.48;;;;;;;;;;6182477;23;20013;-82
2023/05/09 13:35:13;;;;;;;16.60;13.13;;;;;;;;;;6155839;23;20110;-81
2023/05/09 13:37:39;;;;;;;18.15;11.82;;;;;;;;;;6131373;23;20151;-81
2023/05/09 13:40:05;;;;;;;13.52;9.48;;;;;;;;;;6156366;23;20024;-81
2023/05/09 13:42:33;;;;;;;13.05;10.18;;;;;;;;;;6182002;23;20008;-82
2023/05/09 13:44:59;;;;;;;18.65;14.55;;;;;;;;;;6131196;23;20091;-82
2023/05/09 13:47:25;;;;;;;18.85;16.40;;;;;;;;;;6155579;23;20021;-81
2023/05/09 13:49:51;;;;;;;19.55;16.52;;;;;;;;;;6131204;23;20012;-81
2023/05/09 13:52:18;;;;;;;16.95;15.15;;;;;;;;;;6155762;23;20009;-82
2023/05/09 13:54:44;;;;;;;20.20;16.75;;;;;;;;;;6155776;23;20016;-82
2023/05/09 13:57:10;;;;;;;22.25;17.27;;;;;;;;;;6155134;23;20021;-81
2023/05/09 13:59:37;;;;;;;20.02;16.58;;;;;;;;;;6182503;23;20131;-81
2023/05/09 14:02:03;;;;;;;19.52;16.88;;;;;;;;;;6155702;23;20047;-82
2023/05/09 14:04:33;;;;;;;23.63;16.63;;;;;;;;;;6131096;23;20452;-82
2023/05/09 14:06:59;;;;;;;18.58;16.60;;;;;;;;;;6156072;23;20020;-81
2023/05/09 14:09:27;;;;;;;23.50;17.65;;;;;;;;;;6131122;23;20009;-82
2023/05/09 14:11:53;;;;;;;21.67;18.85;;;;;;;;;;6155088;23;20017;-82
2023/05/09 14:14:20;;;;;;;21.38;19.10;;;;;;;;;;6181795;23;20021;-81
2023/05/09 14:16:46;;;;;;;24.65;20.17;;;;;;;;;;6155649;23;20037;-82